sensor_id;sensor_type;location;lat;lon;timestamp;temperature;humidity
10828;DHT22;5467;59.334;13.512;2022-07-10T00:00:12;13.80;99.90
10828;DHT22;5467;59.334;13.512;2022-07-10T00:02:39;13.80;99.90
10828;DHT22;5467;59.334;13.512;2022-07-10T00:05:07;13.90;99.90
10828;DHT22;5467;59.334;13.512;2022-07-10T00:07:35;13.80;99.90
10828;DHT22;5467;59.334;13.512;2022-07-10T00:10:02;13.90;99.90
10828;DHT22;5467;59.334;13.512;2022-07-10T00:12:29;13.90;99.90
10828;DHT22;5467;59.334;13.512;2022-07-10T00:14:58;13.80;99.90
10828;DHT22;5467;59.334;13.512;2022-07-10T00:17:25;13.80;99.90
10828;DHT22;5467;59.334;13.512;2022-07-10T00:19:53;13.80;99.90
10828;DHT22;5467;59.334;13.512;2022-07-10T00:22:20;13.90;99.90
10828;DHT22;5467;59.334;13.512;2022-07-10T00:24:46;13.80;99.90
10828;DHT22;5467;59.334;13.512;2022-07-10T00:27:16;13.80;99.90
10828;DHT22;5467;59.334;13.512;2022-07-10T00:29:43;13.70;99.90
10828;DHT22;5467;59.334;13.512;2022-07-10T00:32:11;13.70;99.90
10828;DHT22;5467;59.334;13.512;2022-07-10T00:34:38;13.80;99.90
10828;DHT22;5467;59.334;13.512;2022-07-10T00:37:05;13.70;99.90
10828;DHT22;5467;59.334;13.512;2022-07-10T00:39:32;13.70;99.90
10828;DHT22;5467;59.334;13.512;2022-07-10T00:42:09;13.60;99.90
10828;DHT22;5467;59.334;13.512;2022-07-10T00:44:37;13.70;99.90
10828;DHT22;5467;59.334;13.512;2022-07-10T00:47:05;13.70;99.90
10828;DHT22;5467;59.334;13.512;2022-07-10T00:49:34;13.60;99.90
10828;DHT22;5467;59.334;13.512;2022-07-10T00:52:06;13.70;99.90
10828;DHT22;5467;59.334;13.512;2022-07-10T00:54:34;13.70;99.90
10828;DHT22;5467;59.334;13.512;2022-07-10T00:57:03;13.60;99.90
10828;DHT22;5467;59.334;13.512;2022-07-10T00:59:31;13.70;99.90
10828;DHT22;5467;59.334;13.512;2022-07-10T01:01:58;13.70;99.90
10828;DHT22;5467;59.334;13.512;2022-07-10T01:04:25;13.70;99.90
10828;DHT22;5467;59.334;13.512;2022-07-10T01:06:54;13.70;99.90
10828;DHT22;5467;59.334;13.512;2022-07-10T01:09:21;13.60;99.90
10828;DHT22;5467;59.334;13.512;2022-07-10T01:11:48;13.40;99.90
10828;DHT22;5467;59.334;13.512;2022-07-10T01:14:16;13.50;99.90
10828;DHT22;5467;59.334;13.512;2022-07-10T01:16:43;13.40;99.90
10828;DHT22;5467;59.334;13.512;2022-07-10T01:19:10;13.50;99.90
10828;DHT22;5467;59.334;13.512;2022-07-10T01:21:38;13.50;99.90
10828;DHT22;5467;59.334;13.512;2022-07-10T01:24:07;13.50;99.90
10828;DHT22;5467;59.334;13.512;2022-07-10T01:26:35;13.50;99.90
10828;DHT22;5467;59.334;13.512;2022-07-10T01:29:03;13.40;99.90
10828;DHT22;5467;59.334;13.512;2022-07-10T01:31:31;13.30;99.90
10828;DHT22;5467;59.334;13.512;2022-07-10T01:33:59;13.40;99.90
10828;DHT22;5467;59.334;13.512;2022-07-10T01:36:28;13.40;99.90
10828;DHT22;5467;59.334;13.512;2022-07-10T01:38:58;13.40;99.90
10828;DHT22;5467;59.334;13.512;2022-07-10T01:41:26;13.30;99.90
10828;DHT22;5467;59.334;13.512;2022-07-10T01:43:53;13.30;99.90
10828;DHT22;5467;59.334;13.512;2022-07-10T01:46:21;13.20;99.90
10828;DHT22;5467;59.334;13.512;2022-07-10T01:48:48;13.30;99.90
10828;DHT22;5467;59.334;13.512;2022-07-10T01:51:15;13.20;99.90
10828;DHT22;5467;59.334;13.512;2022-07-10T01:53:43;13.20;99.90
10828;DHT22;5467;59.334;13.512;2022-07-10T01:56:13;13.10;99.90
10828;DHT22;5467;59.334;13.512;2022-07-10T01:58:40;13.00;99.90
10828;DHT22;5467;59.334;13.512;2022-07-10T02:01:08;12.90;99.90
10828;DHT22;5467;59.334;13.512;2022-07-10T02:03:35;12.80;99.90
10828;DHT22;5467;59.334;13.512;2022-07-10T02:06:19;12.90;99.90
10828;DHT22;5467;59.334;13.512;2022-07-10T02:08:46;12.90;99.90
10828;DHT22;5467;59.334;13.512;2022-07-10T02:11:15;12.80;99.90
10828;DHT22;5467;59.334;13.512;2022-07-10T02:13:42;12.80;99.90
10828;DHT22;5467;59.334;13.512;2022-07-10T02:16:09;12.80;99.90
10828;DHT22;5467;59.334;13.512;2022-07-10T02:18:36;12.70;99.90
10828;DHT22;5467;59.334;13.512;2022-07-10T02:21:04;12.70;99.90
10828;DHT22;5467;59.334;13.512;2022-07-10T02:23:32;12.60;99.90
10828;DHT22;5467;59.334;13.512;2022-07-10T02:26:00;12.60;99.90
10828;DHT22;5467;59.334;13.512;2022-07-10T02:28:29;12.50;99.90
10828;DHT22;5467;59.334;13.512;2022-07-10T02:30:56;12.60;99.90
10828;DHT22;5467;59.334;13.512;2022-07-10T02:33:23;12.50;99.90
10828;DHT22;5467;59.334;13.512;2022-07-10T02:35:50;12.50;99.90
10828;DHT22;5467;59.334;13.512;2022-07-10T02:38:17;12.40;99.90
10828;DHT22;5467;59.334;13.512;2022-07-10T02:40:45;12.40;99.90
10828;DHT22;5467;59.334;13.512;2022-07-10T02:43:12;12.30;99.90
10828;DHT22;5467;59.334;13.512;2022-07-10T02:45:41;12.30;99.90
10828;DHT22;5467;59.334;13.512;2022-07-10T02:48:08;12.30;99.90
10828;DHT22;5467;59.334;13.512;2022-07-10T02:50:35;12.20;99.90
10828;DHT22;5467;59.334;13.512;2022-07-10T02:53:02;12.20;99.90
10828;DHT22;5467;59.334;13.512;2022-07-10T02:55:29;12.20;99.90
10828;DHT22;5467;59.334;13.512;2022-07-10T02:57:58;12.20;99.90
10828;DHT22;5467;59.334;13.512;2022-07-10T03:00:26;12.10;99.90
10828;DHT22;5467;59.334;13.512;2022-07-10T03:02:54;12.10;99.90
10828;DHT22;5467;59.334;13.512;2022-07-10T03:05:22;12.20;99.90
10828;DHT22;5467;59.334;13.512;2022-07-10T03:07:49;12.20;99.90
10828;DHT22;5467;59.334;13.512;2022-07-10T03:10:16;12.30;99.90
10828;DHT22;5467;59.334;13.512;2022-07-10T03:12:43;12.30;99.90
10828;DHT22;5467;59.334;13.512;2022-07-10T03:15:11;12.30;99.90
10828;DHT22;5467;59.334;13.512;2022-07-10T03:17:38;12.30;99.90
10828;DHT22;5467;59.334;13.512;2022-07-10T03:20:08;12.30;99.90
10828;DHT22;5467;59.334;13.512;2022-07-10T03:22:36;12.30;99.90
10828;DHT22;5467;59.334;13.512;2022-07-10T03:25:03;12.30;99.90
10828;DHT22;5467;59.334;13.512;2022-07-10T03:27:30;12.30;99.90
10828;DHT22;5467;59.334;13.512;2022-07-10T03:29:57;12.30;99.90
10828;DHT22;5467;59.334;13.512;2022-07-10T03:32:24;12.40;99.90
10828;DHT22;5467;59.334;13.512;2022-07-10T03:34:51;12.40;99.90
10828;DHT22;5467;59.334;13.512;2022-07-10T03:37:20;12.50;99.90
10828;DHT22;5467;59.334;13.512;2022-07-10T03:39:47;12.50;99.90
10828;DHT22;5467;59.334;13.512;2022-07-10T03:42:14;12.50;99.90
10828;DHT22;5467;59.334;13.512;2022-07-10T03:44:41;12.60;99.90
10828;DHT22;5467;59.334;13.512;2022-07-10T03:47:08;12.60;99.90
10828;DHT22;5467;59.334;13.512;2022-07-10T03:49:35;12.60;99.90
10828;DHT22;5467;59.334;13.512;2022-07-10T03:52:05;12.60;99.90
10828;DHT22;5467;59.334;13.512;2022-07-10T03:54:34;12.60;99.90
10828;DHT22;5467;59.334;13.512;2022-07-10T03:57:00;12.60;99.90
10828;DHT22;5467;59.334;13.512;2022-07-10T03:59:45;12.60;99.90
10828;DHT22;5467;59.334;13.512;2022-07-10T04:02:12;12.50;99.90
10828;DHT22;5467;59.334;13.512;2022-07-10T04:04:39;12.50;99.90
10828;DHT22;5467;59.334;13.512;2022-07-10T04:07:06;12.50;99.90
10828;DHT22;5467;59.334;13.512;2022-07-10T04:09:34;12.50;99.90
10828;DHT22;5467;59.334;13.512;2022-07-10T04:12:02;12.50;99.90
10828;DHT22;5467;59.334;13.512;2022-07-10T04:14:29;12.50;99.90
10828;DHT22;5467;59.334;13.512;2022-07-10T04:16:56;12.50;99.90
10828;DHT22;5467;59.334;13.512;2022-07-10T04:19:23;12.50;99.90
10828;DHT22;5467;59.334;13.512;2022-07-10T04:21:50;12.60;99.90
10828;DHT22;5467;59.334;13.512;2022-07-10T04:24:17;12.60;99.90
10828;DHT22;5467;59.334;13.512;2022-07-10T04:26:45;12.70;99.90
10828;DHT22;5467;59.334;13.512;2022-07-10T04:29:12;12.70;99.90
10828;DHT22;5467;59.334;13.512;2022-07-10T04:31:39;12.70;99.90
10828;DHT22;5467;59.334;13.512;2022-07-10T04:34:06;12.80;99.90
10828;DHT22;5467;59.334;13.512;2022-07-10T04:36:33;12.90;99.90
10828;DHT22;5467;59.334;13.512;2022-07-10T04:39:00;12.90;99.90
10828;DHT22;5467;59.334;13.512;2022-07-10T04:41:27;13.00;99.90
10828;DHT22;5467;59.334;13.512;2022-07-10T04:43:56;13.00;99.90
10828;DHT22;5467;59.334;13.512;2022-07-10T04:46:23;13.10;99.90
10828;DHT22;5467;59.334;13.512;2022-07-10T04:48:50;13.20;99.90
10828;DHT22;5467;59.334;13.512;2022-07-10T04:51:17;13.40;99.90
10828;DHT22;5467;59.334;13.512;2022-07-10T04:53:44;13.40;99.90
10828;DHT22;5467;59.334;13.512;2022-07-10T04:56:11;13.60;99.90
10828;DHT22;5467;59.334;13.512;2022-07-10T04:58:38;13.70;99.90
10828;DHT22;5467;59.334;13.512;2022-07-10T05:01:07;13.70;99.90
10828;DHT22;5467;59.334;13.512;2022-07-10T05:03:34;14.00;99.90
10828;DHT22;5467;59.334;13.512;2022-07-10T05:06:01;14.00;99.90
10828;DHT22;5467;59.334;13.512;2022-07-10T05:08:28;14.10;99.90
10828;DHT22;5467;59.334;13.512;2022-07-10T05:10:55;14.30;99.90
10828;DHT22;5467;59.334;13.512;2022-07-10T05:13:22;14.20;99.90
10828;DHT22;5467;59.334;13.512;2022-07-10T05:15:49;14.20;99.90
10828;DHT22;5467;59.334;13.512;2022-07-10T05:18:18;14.20;99.90
10828;DHT22;5467;59.334;13.512;2022-07-10T05:20:44;14.20;99.90
10828;DHT22;5467;59.334;13.512;2022-07-10T05:23:14;14.30;99.90
10828;DHT22;5467;59.334;13.512;2022-07-10T05:25:42;14.40;99.90
10828;DHT22;5467;59.334;13.512;2022-07-10T05:28:09;14.40;99.90
10828;DHT22;5467;59.334;13.512;2022-07-10T05:30:35;14.50;99.90
10828;DHT22;5467;59.334;13.512;2022-07-10T05:33:03;14.60;99.90
10828;DHT22;5467;59.334;13.512;2022-07-10T05:35:31;14.60;99.90
10828;DHT22;5467;59.334;13.512;2022-07-10T05:37:58;14.70;99.90
10828;DHT22;5467;59.334;13.512;2022-07-10T05:40:25;14.70;99.90
10828;DHT22;5467;59.334;13.512;2022-07-10T05:42:53;14.80;99.90
10828;DHT22;5467;59.334;13.512;2022-07-10T05:45:20;14.90;99.90
10828;DHT22;5467;59.334;13.512;2022-07-10T05:47:50;15.10;99.90
10828;DHT22;5467;59.334;13.512;2022-07-10T05:50:17;15.40;99.90
10828;DHT22;5467;59.334;13.512;2022-07-10T05:52:45;15.40;99.90
10828;DHT22;5467;59.334;13.512;2022-07-10T05:55:13;15.30;99.90
10828;DHT22;5467;59.334;13.512;2022-07-10T05:57:41;15.30;99.90
10828;DHT22;5467;59.334;13.512;2022-07-10T06:00:09;15.30;99.90
10828;DHT22;5467;59.334;13.512;2022-07-10T06:02:36;15.50;99.90
10828;DHT22;5467;59.334;13.512;2022-07-10T06:05:03;15.40;99.90
10828;DHT22;5467;59.334;13.512;2022-07-10T06:07:31;15.40;99.90
10828;DHT22;5467;59.334;13.512;2022-07-10T06:09:59;15.60;99.90
10828;DHT22;5467;59.334;13.512;2022-07-10T06:12:26;15.60;99.90
10828;DHT22;5467;59.334;13.512;2022-07-10T06:14:53;15.50;99.90
10828;DHT22;5467;59.334;13.512;2022-07-10T06:17:20;15.40;99.90
10828;DHT22;5467;59.334;13.512;2022-07-10T06:19:47;15.40;99.90
10828;DHT22;5467;59.334;13.512;2022-07-10T06:22:14;15.60;99.90
10828;DHT22;5467;59.334;13.512;2022-07-10T06:25:03;15.60;99.90
10828;DHT22;5467;59.334;13.512;2022-07-10T06:27:31;15.50;99.90
10828;DHT22;5467;59.334;13.512;2022-07-10T06:29:58;15.50;99.90
10828;DHT22;5467;59.334;13.512;2022-07-10T06:32:26;15.40;99.90
10828;DHT22;5467;59.334;13.512;2022-07-10T06:34:53;15.40;99.90
10828;DHT22;5467;59.334;13.512;2022-07-10T06:37:21;15.30;99.90
10828;DHT22;5467;59.334;13.512;2022-07-10T06:39:48;15.40;99.90
10828;DHT22;5467;59.334;13.512;2022-07-10T06:42:16;15.40;99.90
10828;DHT22;5467;59.334;13.512;2022-07-10T06:44:44;15.40;99.90
10828;DHT22;5467;59.334;13.512;2022-07-10T06:47:12;15.40;99.90
10828;DHT22;5467;59.334;13.512;2022-07-10T06:50:09;15.50;99.90
10828;DHT22;5467;59.334;13.512;2022-07-10T06:52:36;15.60;99.90
10828;DHT22;5467;59.334;13.512;2022-07-10T06:55:04;15.70;99.90
10828;DHT22;5467;59.334;13.512;2022-07-10T06:57:33;15.70;99.90
10828;DHT22;5467;59.334;13.512;2022-07-10T07:00:01;16.00;99.90
10828;DHT22;5467;59.334;13.512;2022-07-10T07:02:28;16.10;99.90
10828;DHT22;5467;59.334;13.512;2022-07-10T07:04:55;16.20;99.90
10828;DHT22;5467;59.334;13.512;2022-07-10T07:07:22;16.40;99.90
10828;DHT22;5467;59.334;13.512;2022-07-10T07:09:49;16.50;99.90
10828;DHT22;5467;59.334;13.512;2022-07-10T07:12:16;16.60;99.90
10828;DHT22;5467;59.334;13.512;2022-07-10T07:14:45;16.60;99.90
10828;DHT22;5467;59.334;13.512;2022-07-10T07:17:12;16.70;99.90
10828;DHT22;5467;59.334;13.512;2022-07-10T07:19:46;17.00;99.90
10828;DHT22;5467;59.334;13.512;2022-07-10T07:22:33;17.20;99.90
10828;DHT22;5467;59.334;13.512;2022-07-10T07:25:18;17.30;99.90
10828;DHT22;5467;59.334;13.512;2022-07-10T07:27:45;17.30;99.90
10828;DHT22;5467;59.334;13.512;2022-07-10T07:30:14;17.30;99.90
10828;DHT22;5467;59.334;13.512;2022-07-10T07:32:42;17.60;99.90
10828;DHT22;5467;59.334;13.512;2022-07-10T07:35:10;17.60;99.90
10828;DHT22;5467;59.334;13.512;2022-07-10T07:37:38;17.70;99.90
10828;DHT22;5467;59.334;13.512;2022-07-10T07:40:07;17.90;99.90
10828;DHT22;5467;59.334;13.512;2022-07-10T07:42:35;18.10;99.90
10828;DHT22;5467;59.334;13.512;2022-07-10T07:45:03;18.20;99.90
10828;DHT22;5467;59.334;13.512;2022-07-10T07:47:42;18.00;99.90
10828;DHT22;5467;59.334;13.512;2022-07-10T07:50:09;17.90;99.90
10828;DHT22;5467;59.334;13.512;2022-07-10T07:52:36;17.50;99.90
10828;DHT22;5467;59.334;13.512;2022-07-10T07:55:04;17.00;99.90
10828;DHT22;5467;59.334;13.512;2022-07-10T07:57:34;17.20;99.90
10828;DHT22;5467;59.334;13.512;2022-07-10T08:00:01;17.30;99.90
10828;DHT22;5467;59.334;13.512;2022-07-10T08:02:28;17.10;99.90
10828;DHT22;5467;59.334;13.512;2022-07-10T08:04:57;16.80;99.90
10828;DHT22;5467;59.334;13.512;2022-07-10T08:07:33;16.70;99.90
10828;DHT22;5467;59.334;13.512;2022-07-10T08:10:00;16.50;99.90
10828;DHT22;5467;59.334;13.512;2022-07-10T08:12:27;16.60;99.90
10828;DHT22;5467;59.334;13.512;2022-07-10T08:14:54;17.00;99.90
10828;DHT22;5467;59.334;13.512;2022-07-10T08:17:21;17.20;99.90
10828;DHT22;5467;59.334;13.512;2022-07-10T08:19:48;17.80;99.90
10828;DHT22;5467;59.334;13.512;2022-07-10T08:22:16;18.10;99.90
10828;DHT22;5467;59.334;13.512;2022-07-10T08:24:44;18.50;99.90
10828;DHT22;5467;59.334;13.512;2022-07-10T08:27:11;19.10;99.90
10828;DHT22;5467;59.334;13.512;2022-07-10T08:29:38;19.00;99.90
10828;DHT22;5467;59.334;13.512;2022-07-10T08:32:05;18.40;99.90
10828;DHT22;5467;59.334;13.512;2022-07-10T08:34:32;18.10;99.90
10828;DHT22;5467;59.334;13.512;2022-07-10T08:36:59;18.10;99.90
10828;DHT22;5467;59.334;13.512;2022-07-10T08:39:27;18.40;99.90
10828;DHT22;5467;59.334;13.512;2022-07-10T08:41:55;18.50;99.90
10828;DHT22;5467;59.334;13.512;2022-07-10T08:44:22;17.80;99.90
10828;DHT22;5467;59.334;13.512;2022-07-10T08:46:49;17.70;99.90
10828;DHT22;5467;59.334;13.512;2022-07-10T08:49:17;17.70;99.90
10828;DHT22;5467;59.334;13.512;2022-07-10T08:51:48;17.90;99.90
10828;DHT22;5467;59.334;13.512;2022-07-10T08:54:17;17.90;99.90
10828;DHT22;5467;59.334;13.512;2022-07-10T08:56:47;17.80;99.90
10828;DHT22;5467;59.334;13.512;2022-07-10T08:59:17;17.80;99.90
10828;DHT22;5467;59.334;13.512;2022-07-10T09:01:44;18.20;99.90
10828;DHT22;5467;59.334;13.512;2022-07-10T09:04:16;18.70;99.90
10828;DHT22;5467;59.334;13.512;2022-07-10T09:06:44;18.90;99.90
10828;DHT22;5467;59.334;13.512;2022-07-10T09:09:11;19.00;99.90
10828;DHT22;5467;59.334;13.512;2022-07-10T09:11:39;18.70;99.90
10828;DHT22;5467;59.334;13.512;2022-07-10T09:14:10;18.70;99.90
10828;DHT22;5467;59.334;13.512;2022-07-10T09:16:38;18.60;99.90
10828;DHT22;5467;59.334;13.512;2022-07-10T09:19:17;18.40;99.90
10828;DHT22;5467;59.334;13.512;2022-07-10T09:21:45;18.40;99.90
10828;DHT22;5467;59.334;13.512;2022-07-10T09:24:13;18.60;99.90
10828;DHT22;5467;59.334;13.512;2022-07-10T09:26:42;18.70;99.90
10828;DHT22;5467;59.334;13.512;2022-07-10T09:29:12;17.90;99.90
10828;DHT22;5467;59.334;13.512;2022-07-10T09:31:49;17.80;99.90
10828;DHT22;5467;59.334;13.512;2022-07-10T09:34:17;17.90;99.90
10828;DHT22;5467;59.334;13.512;2022-07-10T09:36:45;17.90;99.90
10828;DHT22;5467;59.334;13.512;2022-07-10T09:39:12;17.90;99.90
10828;DHT22;5467;59.334;13.512;2022-07-10T09:41:39;18.10;99.90
10828;DHT22;5467;59.334;13.512;2022-07-10T09:44:07;18.50;99.90
10828;DHT22;5467;59.334;13.512;2022-07-10T09:46:36;19.00;99.90
10828;DHT22;5467;59.334;13.512;2022-07-10T09:49:08;19.20;99.90
10828;DHT22;5467;59.334;13.512;2022-07-10T09:51:37;19.60;99.90
10828;DHT22;5467;59.334;13.512;2022-07-10T09:54:06;19.90;99.90
10828;DHT22;5467;59.334;13.512;2022-07-10T09:56:40;20.20;99.90
10828;DHT22;5467;59.334;13.512;2022-07-10T09:59:10;20.20;99.90
10828;DHT22;5467;59.334;13.512;2022-07-10T10:01:42;20.10;99.90
10828;DHT22;5467;59.334;13.512;2022-07-10T10:04:10;20.10;99.90
10828;DHT22;5467;59.334;13.512;2022-07-10T10:06:39;19.70;99.90
10828;DHT22;5467;59.334;13.512;2022-07-10T10:09:09;19.90;99.90
10828;DHT22;5467;59.334;13.512;2022-07-10T10:11:40;19.60;99.90
10828;DHT22;5467;59.334;13.512;2022-07-10T10:14:11;19.90;99.90
10828;DHT22;5467;59.334;13.512;2022-07-10T10:16:44;19.70;99.90
10828;DHT22;5467;59.334;13.512;2022-07-10T10:19:12;19.20;99.90
10828;DHT22;5467;59.334;13.512;2022-07-10T10:22:04;18.90;99.90
10828;DHT22;5467;59.334;13.512;2022-07-10T10:24:32;18.60;99.90
10828;DHT22;5467;59.334;13.512;2022-07-10T10:27:00;18.20;99.90
10828;DHT22;5467;59.334;13.512;2022-07-10T10:29:28;18.00;99.90
10828;DHT22;5467;59.334;13.512;2022-07-10T10:31:57;18.10;99.90
10828;DHT22;5467;59.334;13.512;2022-07-10T10:34:41;18.10;99.90
10828;DHT22;5467;59.334;13.512;2022-07-10T10:37:33;18.00;99.90
10828;DHT22;5467;59.334;13.512;2022-07-10T10:40:02;17.80;99.90
10828;DHT22;5467;59.334;13.512;2022-07-10T10:42:34;17.70;99.90
10828;DHT22;5467;59.334;13.512;2022-07-10T10:45:32;17.70;99.90
10828;DHT22;5467;59.334;13.512;2022-07-10T10:48:05;17.80;99.90
10828;DHT22;5467;59.334;13.512;2022-07-10T10:50:38;17.90;99.90
10828;DHT22;5467;59.334;13.512;2022-07-10T10:53:12;17.80;99.90
10828;DHT22;5467;59.334;13.512;2022-07-10T10:55:40;17.70;99.90
10828;DHT22;5467;59.334;13.512;2022-07-10T10:58:15;17.70;99.90
10828;DHT22;5467;59.334;13.512;2022-07-10T11:00:43;17.60;99.90
10828;DHT22;5467;59.334;13.512;2022-07-10T11:03:19;17.20;99.90
10828;DHT22;5467;59.334;13.512;2022-07-10T11:05:48;17.00;99.90
10828;DHT22;5467;59.334;13.512;2022-07-10T11:08:38;17.10;99.90
10828;DHT22;5467;59.334;13.512;2022-07-10T11:11:37;17.00;99.90
10828;DHT22;5467;59.334;13.512;2022-07-10T11:14:08;17.00;99.90
10828;DHT22;5467;59.334;13.512;2022-07-10T11:16:35;17.10;99.90
10828;DHT22;5467;59.334;13.512;2022-07-10T11:19:06;17.10;99.90
10828;DHT22;5467;59.334;13.512;2022-07-10T11:21:46;17.20;99.90
10828;DHT22;5467;59.334;13.512;2022-07-10T11:24:29;17.40;99.90
10828;DHT22;5467;59.334;13.512;2022-07-10T11:27:15;17.40;99.90
10828;DHT22;5467;59.334;13.512;2022-07-10T11:29:56;17.60;99.90
10828;DHT22;5467;59.334;13.512;2022-07-10T11:32:23;17.70;99.90
10828;DHT22;5467;59.334;13.512;2022-07-10T11:34:52;17.60;99.90
10828;DHT22;5467;59.334;13.512;2022-07-10T11:37:19;17.50;99.90
10828;DHT22;5467;59.334;13.512;2022-07-10T11:39:46;17.50;99.90
10828;DHT22;5467;59.334;13.512;2022-07-10T11:42:13;17.40;99.90
10828;DHT22;5467;59.334;13.512;2022-07-10T11:44:41;17.40;99.90
10828;DHT22;5467;59.334;13.512;2022-07-10T11:47:08;17.10;99.90
10828;DHT22;5467;59.334;13.512;2022-07-10T11:49:44;17.10;99.90
10828;DHT22;5467;59.334;13.512;2022-07-10T11:52:13;17.10;99.90
10828;DHT22;5467;59.334;13.512;2022-07-10T11:54:40;17.20;99.90
10828;DHT22;5467;59.334;13.512;2022-07-10T11:57:08;17.30;99.90
10828;DHT22;5467;59.334;13.512;2022-07-10T11:59:36;17.20;99.90
10828;DHT22;5467;59.334;13.512;2022-07-10T12:02:04;17.10;99.90
10828;DHT22;5467;59.334;13.512;2022-07-10T12:04:32;17.30;99.90
10828;DHT22;5467;59.334;13.512;2022-07-10T12:06:59;17.60;99.90
10828;DHT22;5467;59.334;13.512;2022-07-10T12:09:27;17.60;99.90
10828;DHT22;5467;59.334;13.512;2022-07-10T12:11:59;17.70;99.90
10828;DHT22;5467;59.334;13.512;2022-07-10T12:14:26;17.70;99.90
10828;DHT22;5467;59.334;13.512;2022-07-10T12:16:54;17.70;99.90
10828;DHT22;5467;59.334;13.512;2022-07-10T12:19:23;17.70;99.90
10828;DHT22;5467;59.334;13.512;2022-07-10T12:21:52;17.50;99.90
10828;DHT22;5467;59.334;13.512;2022-07-10T12:24:19;17.40;99.90
10828;DHT22;5467;59.334;13.512;2022-07-10T12:26:50;17.40;99.90
10828;DHT22;5467;59.334;13.512;2022-07-10T12:29:22;17.40;99.90
10828;DHT22;5467;59.334;13.512;2022-07-10T12:31:51;17.20;99.90
10828;DHT22;5467;59.334;13.512;2022-07-10T12:34:19;17.40;99.90
10828;DHT22;5467;59.334;13.512;2022-07-10T12:36:47;17.40;99.90
10828;DHT22;5467;59.334;13.512;2022-07-10T12:39:17;17.50;99.90
10828;DHT22;5467;59.334;13.512;2022-07-10T12:41:59;17.60;99.90
10828;DHT22;5467;59.334;13.512;2022-07-10T12:44:37;17.60;99.90
10828;DHT22;5467;59.334;13.512;2022-07-10T12:47:06;17.80;99.90
10828;DHT22;5467;59.334;13.512;2022-07-10T12:49:54;18.00;99.90
10828;DHT22;5467;59.334;13.512;2022-07-10T12:52:23;17.80;99.90
10828;DHT22;5467;59.334;13.512;2022-07-10T12:55:08;17.90;99.90
10828;DHT22;5467;59.334;13.512;2022-07-10T12:57:48;18.00;99.90
10828;DHT22;5467;59.334;13.512;2022-07-10T13:00:16;17.90;99.90
10828;DHT22;5467;59.334;13.512;2022-07-10T13:02:44;17.80;99.90
10828;DHT22;5467;59.334;13.512;2022-07-10T13:05:25;17.60;99.90
10828;DHT22;5467;59.334;13.512;2022-07-10T13:07:53;17.50;99.90
10828;DHT22;5467;59.334;13.512;2022-07-10T13:10:31;17.60;99.90
10828;DHT22;5467;59.334;13.512;2022-07-10T13:12:59;17.60;99.90
10828;DHT22;5467;59.334;13.512;2022-07-10T13:15:27;17.70;99.90
10828;DHT22;5467;59.334;13.512;2022-07-10T13:17:55;17.70;99.90
10828;DHT22;5467;59.334;13.512;2022-07-10T13:20:22;17.70;99.90
10828;DHT22;5467;59.334;13.512;2022-07-10T13:22:49;17.80;99.90
10828;DHT22;5467;59.334;13.512;2022-07-10T13:25:16;17.90;99.90
10828;DHT22;5467;59.334;13.512;2022-07-10T13:27:43;17.90;99.90
10828;DHT22;5467;59.334;13.512;2022-07-10T13:30:12;18.00;99.90
10828;DHT22;5467;59.334;13.512;2022-07-10T13:32:39;18.10;99.90
10828;DHT22;5467;59.334;13.512;2022-07-10T13:35:06;18.20;99.90
10828;DHT22;5467;59.334;13.512;2022-07-10T13:37:34;18.40;99.90
10828;DHT22;5467;59.334;13.512;2022-07-10T13:40:02;18.70;99.90
10828;DHT22;5467;59.334;13.512;2022-07-10T13:42:29;19.00;99.90
10828;DHT22;5467;59.334;13.512;2022-07-10T13:44:56;19.30;99.90
10828;DHT22;5467;59.334;13.512;2022-07-10T13:47:25;19.50;99.90
10828;DHT22;5467;59.334;13.512;2022-07-10T13:49:52;19.50;99.90
10828;DHT22;5467;59.334;13.512;2022-07-10T13:52:19;19.40;99.90
10828;DHT22;5467;59.334;13.512;2022-07-10T13:54:46;19.40;99.90
10828;DHT22;5467;59.334;13.512;2022-07-10T13:57:13;19.60;99.90
10828;DHT22;5467;59.334;13.512;2022-07-10T13:59:40;19.80;99.90
10828;DHT22;5467;59.334;13.512;2022-07-10T14:02:07;19.80;99.90
10828;DHT22;5467;59.334;13.512;2022-07-10T14:04:35;19.80;99.90
10828;DHT22;5467;59.334;13.512;2022-07-10T14:07:03;19.60;99.90
10828;DHT22;5467;59.334;13.512;2022-07-10T14:09:30;19.70;99.90
10828;DHT22;5467;59.334;13.512;2022-07-10T14:11:57;19.50;99.90
10828;DHT22;5467;59.334;13.512;2022-07-10T14:14:24;19.00;99.90
10828;DHT22;5467;59.334;13.512;2022-07-10T14:16:51;19.00;99.90
10828;DHT22;5467;59.334;13.512;2022-07-10T14:19:18;19.10;99.90
10828;DHT22;5467;59.334;13.512;2022-07-10T14:21:47;19.20;99.90
10828;DHT22;5467;59.334;13.512;2022-07-10T14:24:14;19.20;99.90
10828;DHT22;5467;59.334;13.512;2022-07-10T14:26:41;19.20;99.90
10828;DHT22;5467;59.334;13.512;2022-07-10T14:29:08;19.20;99.90
10828;DHT22;5467;59.334;13.512;2022-07-10T14:31:35;19.10;99.90
10828;DHT22;5467;59.334;13.512;2022-07-10T14:34:02;18.70;99.90
10828;DHT22;5467;59.334;13.512;2022-07-10T14:36:30;18.60;99.90
10828;DHT22;5467;59.334;13.512;2022-07-10T14:38:58;18.50;99.90
10828;DHT22;5467;59.334;13.512;2022-07-10T14:41:25;18.70;99.90
10828;DHT22;5467;59.334;13.512;2022-07-10T14:43:53;19.00;99.90
10828;DHT22;5467;59.334;13.512;2022-07-10T14:46:20;19.20;99.90
10828;DHT22;5467;59.334;13.512;2022-07-10T14:48:47;19.30;99.90
10828;DHT22;5467;59.334;13.512;2022-07-10T14:51:14;19.20;99.90
10828;DHT22;5467;59.334;13.512;2022-07-10T14:53:41;18.80;99.90
10828;DHT22;5467;59.334;13.512;2022-07-10T14:56:12;18.90;99.90
10828;DHT22;5467;59.334;13.512;2022-07-10T14:58:41;19.10;99.90
10828;DHT22;5467;59.334;13.512;2022-07-10T15:01:09;18.90;99.90
10828;DHT22;5467;59.334;13.512;2022-07-10T15:03:36;18.80;99.90
10828;DHT22;5467;59.334;13.512;2022-07-10T15:06:03;18.90;99.90
10828;DHT22;5467;59.334;13.512;2022-07-10T15:08:31;19.00;99.90
10828;DHT22;5467;59.334;13.512;2022-07-10T15:10:58;18.80;99.90
10828;DHT22;5467;59.334;13.512;2022-07-10T15:13:27;18.70;99.90
10828;DHT22;5467;59.334;13.512;2022-07-10T15:15:54;18.30;99.90
10828;DHT22;5467;59.334;13.512;2022-07-10T15:18:21;18.20;99.90
10828;DHT22;5467;59.334;13.512;2022-07-10T15:20:48;18.30;99.90
10828;DHT22;5467;59.334;13.512;2022-07-10T15:23:15;18.40;99.90
10828;DHT22;5467;59.334;13.512;2022-07-10T15:25:42;18.50;99.90
10828;DHT22;5467;59.334;13.512;2022-07-10T15:28:10;18.80;99.90
10828;DHT22;5467;59.334;13.512;2022-07-10T15:30:39;19.00;99.90
10828;DHT22;5467;59.334;13.512;2022-07-10T15:33:08;18.90;99.90
10828;DHT22;5467;59.334;13.512;2022-07-10T15:35:35;18.70;99.90
10828;DHT22;5467;59.334;13.512;2022-07-10T15:38:02;18.70;99.90
10828;DHT22;5467;59.334;13.512;2022-07-10T15:40:29;18.40;99.90